sensor_id;sensor_type;location;lat;lon;timestamp;temperature;humidity
29431;DHT22;16404;49.902;10.074;2023-02-15T00:00:46;6.30;68.60
29431;DHT22;16404;49.902;10.074;2023-02-15T00:03:31;6.30;68.50
29431;DHT22;16404;49.902;10.074;2023-02-15T00:06:15;6.30;68.50
29431;DHT22;16404;49.902;10.074;2023-02-15T00:09:01;6.30;68.50
29431;DHT22;16404;49.902;10.074;2023-02-15T00:11:46;6.30;68.60
29431;DHT22;16404;49.902;10.074;2023-02-15T00:14:34;6.30;68.70
29431;DHT22;16404;49.902;10.074;2023-02-15T00:17:18;6.30;68.70
29431;DHT22;16404;49.902;10.074;2023-02-15T00:20:03;6.30;68.60
29431;DHT22;16404;49.902;10.074;2023-02-15T00:22:48;6.30;68.60
29431;DHT22;16404;49.902;10.074;2023-02-15T00:25:32;6.30;68.70
29431;DHT22;16404;49.902;10.074;2023-02-15T00:28:17;6.40;68.80
29431;DHT22;16404;49.902;10.074;2023-02-15T00:31:06;6.40;68.60
29431;DHT22;16404;49.902;10.074;2023-02-15T00:33:53;6.40;68.70
29431;DHT22;16404;49.902;10.074;2023-02-15T00:36:38;6.40;68.60
29431;DHT22;16404;49.902;10.074;2023-02-15T00:39:22;6.40;68.60
29431;DHT22;16404;49.902;10.074;2023-02-15T00:42:08;6.40;68.50
29431;DHT22;16404;49.902;10.074;2023-02-15T00:44:52;6.40;68.20
29431;DHT22;16404;49.902;10.074;2023-02-15T00:47:38;6.30;68.40
29431;DHT22;16404;49.902;10.074;2023-02-15T00:50:23;6.30;68.50
29431;DHT22;16404;49.902;10.074;2023-02-15T00:53:08;6.30;68.60
29431;DHT22;16404;49.902;10.074;2023-02-15T00:55:53;6.30;69.30
29431;DHT22;16404;49.902;10.074;2023-02-15T00:58:37;6.40;68.50
29431;DHT22;16404;49.902;10.074;2023-02-15T01:01:22;6.30;68.20
29431;DHT22;16404;49.902;10.074;2023-02-15T01:04:08;6.30;68.30
29431;DHT22;16404;49.902;10.074;2023-02-15T01:06:53;6.40;68.50
29431;DHT22;16404;49.902;10.074;2023-02-15T01:09:38;6.30;68.40
29431;DHT22;16404;49.902;10.074;2023-02-15T01:12:22;6.40;68.60
29431;DHT22;16404;49.902;10.074;2023-02-15T01:15:07;6.30;68.50
29431;DHT22;16404;49.902;10.074;2023-02-15T01:17:52;6.30;68.60
29431;DHT22;16404;49.902;10.074;2023-02-15T01:20:39;6.30;68.60
29431;DHT22;16404;49.902;10.074;2023-02-15T01:23:25;6.30;68.70
29431;DHT22;16404;49.902;10.074;2023-02-15T01:26:10;6.40;68.70
29431;DHT22;16404;49.902;10.074;2023-02-15T01:28:55;6.40;68.80
29431;DHT22;16404;49.902;10.074;2023-02-15T01:31:41;6.40;68.60
29431;DHT22;16404;49.902;10.074;2023-02-15T01:34:25;6.40;68.50
29431;DHT22;16404;49.902;10.074;2023-02-15T01:37:10;6.40;68.60
29431;DHT22;16404;49.902;10.074;2023-02-15T01:39:54;6.50;68.50
29431;DHT22;16404;49.902;10.074;2023-02-15T01:42:40;6.40;68.50
29431;DHT22;16404;49.902;10.074;2023-02-15T01:45:28;6.40;68.50
29431;DHT22;16404;49.902;10.074;2023-02-15T01:50:59;6.50;68.40
29431;DHT22;16404;49.902;10.074;2023-02-15T01:53:57;6.50;68.30
29431;DHT22;16404;49.902;10.074;2023-02-15T01:56:43;6.50;68.30
29431;DHT22;16404;49.902;10.074;2023-02-15T01:59:28;6.40;68.30
29431;DHT22;16404;49.902;10.074;2023-02-15T02:02:13;6.40;68.40
29431;DHT22;16404;49.902;10.074;2023-02-15T02:04:59;6.40;68.30
29431;DHT22;16404;49.902;10.074;2023-02-15T02:07:51;6.50;68.00
29431;DHT22;16404;49.902;10.074;2023-02-15T02:10:36;6.50;67.70
29431;DHT22;16404;49.902;10.074;2023-02-15T02:13:21;6.50;67.70
29431;DHT22;16404;49.902;10.074;2023-02-15T02:34:39;6.40;68.00
29431;DHT22;16404;49.902;10.074;2023-02-15T02:38:00;6.40;68.10
29431;DHT22;16404;49.902;10.074;2023-02-15T02:43:54;6.40;68.20
29431;DHT22;16404;49.902;10.074;2023-02-15T02:49:40;6.40;67.90
29431;DHT22;16404;49.902;10.074;2023-02-15T02:55:50;6.30;68.00
29431;DHT22;16404;49.902;10.074;2023-02-15T02:58:39;6.30;68.00
29431;DHT22;16404;49.902;10.074;2023-02-15T03:01:51;6.30;68.00
29431;DHT22;16404;49.902;10.074;2023-02-15T03:04:42;6.30;68.00
29431;DHT22;16404;49.902;10.074;2023-02-15T03:07:30;6.30;67.80
29431;DHT22;16404;49.902;10.074;2023-02-15T03:10:18;6.30;68.40
29431;DHT22;16404;49.902;10.074;2023-02-15T03:13:05;6.40;67.80
29431;DHT22;16404;49.902;10.074;2023-02-15T03:15:49;6.30;67.70
29431;DHT22;16404;49.902;10.074;2023-02-15T03:19:09;6.40;67.80
29431;DHT22;16404;49.902;10.074;2023-02-15T03:22:17;6.40;67.50
29431;DHT22;16404;49.902;10.074;2023-02-15T03:28:03;6.20;67.50
29431;DHT22;16404;49.902;10.074;2023-02-15T03:30:52;6.20;67.70
29431;DHT22;16404;49.902;10.074;2023-02-15T03:33:44;6.20;67.70
29431;DHT22;16404;49.902;10.074;2023-02-15T03:42:24;6.20;67.60
29431;DHT22;16404;49.902;10.074;2023-02-15T03:45:15;6.20;67.60
29431;DHT22;16404;49.902;10.074;2023-02-15T03:48:03;6.10;67.60
29431;DHT22;16404;49.902;10.074;2023-02-15T03:50:49;6.10;67.80
29431;DHT22;16404;49.902;10.074;2023-02-15T03:53:54;6.10;67.90
29431;DHT22;16404;49.902;10.074;2023-02-15T03:56:41;6.00;67.90
29431;DHT22;16404;49.902;10.074;2023-02-15T03:59:46;5.90;68.10
29431;DHT22;16404;49.902;10.074;2023-02-15T04:03:03;5.90;68.00
29431;DHT22;16404;49.902;10.074;2023-02-15T04:05:51;5.90;68.00
29431;DHT22;16404;49.902;10.074;2023-02-15T04:08:36;5.90;68.00
29431;DHT22;16404;49.902;10.074;2023-02-15T04:11:39;5.90;67.70
29431;DHT22;16404;49.902;10.074;2023-02-15T04:14:23;5.90;67.80
29431;DHT22;16404;49.902;10.074;2023-02-15T04:17:26;5.90;67.80
29431;DHT22;16404;49.902;10.074;2023-02-15T04:20:11;5.90;67.90
29431;DHT22;16404;49.902;10.074;2023-02-15T04:23:14;5.90;67.90
29431;DHT22;16404;49.902;10.074;2023-02-15T04:26:17;5.90;67.90
29431;DHT22;16404;49.902;10.074;2023-02-15T04:29:02;5.80;68.00
29431;DHT22;16404;49.902;10.074;2023-02-15T04:31:47;5.70;67.90
29431;DHT22;16404;49.902;10.074;2023-02-15T04:34:31;5.70;67.80
29431;DHT22;16404;49.902;10.074;2023-02-15T04:37:15;5.80;67.70
29431;DHT22;16404;49.902;10.074;2023-02-15T04:40:00;5.80;67.40
29431;DHT22;16404;49.902;10.074;2023-02-15T04:42:48;5.80;67.40
29431;DHT22;16404;49.902;10.074;2023-02-15T04:45:33;5.70;67.60
29431;DHT22;16404;49.902;10.074;2023-02-15T04:48:18;5.60;67.80
29431;DHT22;16404;49.902;10.074;2023-02-15T04:51:06;5.60;68.00
29431;DHT22;16404;49.902;10.074;2023-02-15T04:53:51;5.60;68.00
29431;DHT22;16404;49.902;10.074;2023-02-15T04:56:39;5.60;68.10
29431;DHT22;16404;49.902;10.074;2023-02-15T04:59:23;5.60;68.10
29431;DHT22;16404;49.902;10.074;2023-02-15T05:02:08;5.50;67.90
29431;DHT22;16404;49.902;10.074;2023-02-15T05:04:53;5.50;68.00
29431;DHT22;16404;49.902;10.074;2023-02-15T05:07:37;5.40;68.10
29431;DHT22;16404;49.902;10.074;2023-02-15T05:10:22;5.50;68.10
29431;DHT22;16404;49.902;10.074;2023-02-15T05:13:07;5.50;68.10
29431;DHT22;16404;49.902;10.074;2023-02-15T05:15:52;5.50;68.00
29431;DHT22;16404;49.902;10.074;2023-02-15T05:18:37;5.60;68.00
29431;DHT22;16404;49.902;10.074;2023-02-15T05:21:21;5.60;67.90
29431;DHT22;16404;49.902;10.074;2023-02-15T05:24:06;5.60;67.80
29431;DHT22;16404;49.902;10.074;2023-02-15T05:27:12;5.60;67.90
29431;DHT22;16404;49.902;10.074;2023-02-15T05:30:15;5.50;67.70
29431;DHT22;16404;49.902;10.074;2023-02-15T05:33:00;5.50;67.80
29431;DHT22;16404;49.902;10.074;2023-02-15T05:35:44;5.40;67.90
29431;DHT22;16404;49.902;10.074;2023-02-15T05:38:29;5.40;67.90
29431;DHT22;16404;49.902;10.074;2023-02-15T05:41:14;5.40;68.00
29431;DHT22;16404;49.902;10.074;2023-02-15T05:43:59;5.40;68.00
29431;DHT22;16404;49.902;10.074;2023-02-15T05:46:43;5.40;68.00
29431;DHT22;16404;49.902;10.074;2023-02-15T05:49:28;5.40;68.00
29431;DHT22;16404;49.902;10.074;2023-02-15T05:52:13;5.40;67.80
29431;DHT22;16404;49.902;10.074;2023-02-15T05:54:57;5.40;67.80
29431;DHT22;16404;49.902;10.074;2023-02-15T05:57:44;5.40;67.70
29431;DHT22;16404;49.902;10.074;2023-02-15T06:00:29;5.40;67.80
29431;DHT22;16404;49.902;10.074;2023-02-15T06:03:13;5.40;67.80
29431;DHT22;16404;49.902;10.074;2023-02-15T06:05:58;5.40;67.90
29431;DHT22;16404;49.902;10.074;2023-02-15T06:08:43;5.40;68.10
29431;DHT22;16404;49.902;10.074;2023-02-15T06:11:27;5.40;68.10
29431;DHT22;16404;49.902;10.074;2023-02-15T06:14:12;5.40;68.00
29431;DHT22;16404;49.902;10.074;2023-02-15T06:16:56;5.50;67.60
29431;DHT22;16404;49.902;10.074;2023-02-15T06:19:41;5.50;67.70
29431;DHT22;16404;49.902;10.074;2023-02-15T06:22:25;5.50;67.70
29431;DHT22;16404;49.902;10.074;2023-02-15T06:25:10;5.40;67.70
29431;DHT22;16404;49.902;10.074;2023-02-15T06:27:55;5.40;67.80
29431;DHT22;16404;49.902;10.074;2023-02-15T06:30:40;5.40;67.90
29431;DHT22;16404;49.902;10.074;2023-02-15T06:33:24;5.40;67.90
29431;DHT22;16404;49.902;10.074;2023-02-15T06:36:09;5.40;67.80
29431;DHT22;16404;49.902;10.074;2023-02-15T06:38:54;5.40;67.80
29431;DHT22;16404;49.902;10.074;2023-02-15T06:41:38;5.40;67.90
29431;DHT22;16404;49.902;10.074;2023-02-15T06:44:23;5.50;67.90
29431;DHT22;16404;49.902;10.074;2023-02-15T06:47:07;5.50;67.60
29431;DHT22;16404;49.902;10.074;2023-02-15T06:49:52;5.50;67.80
29431;DHT22;16404;49.902;10.074;2023-02-15T06:52:36;5.50;67.90
29431;DHT22;16404;49.902;10.074;2023-02-15T06:55:21;5.50;67.80
29431;DHT22;16404;49.902;10.074;2023-02-15T06:58:06;5.50;67.80
29431;DHT22;16404;49.902;10.074;2023-02-15T07:00:51;5.50;67.80
29431;DHT22;16404;49.902;10.074;2023-02-15T07:03:37;5.50;67.90
29431;DHT22;16404;49.902;10.074;2023-02-15T07:06:21;5.50;67.90
29431;DHT22;16404;49.902;10.074;2023-02-15T07:09:06;5.50;67.80
29431;DHT22;16404;49.902;10.074;2023-02-15T07:11:50;5.40;68.10
29431;DHT22;16404;49.902;10.074;2023-02-15T07:14:54;5.30;68.70
29431;DHT22;16404;49.902;10.074;2023-02-15T07:17:39;5.30;68.50
29431;DHT22;16404;49.902;10.074;2023-02-15T07:20:23;5.40;68.50
29431;DHT22;16404;49.902;10.074;2023-02-15T07:23:08;5.40;68.50
29431;DHT22;16404;49.902;10.074;2023-02-15T07:25:57;5.40;68.40
29431;DHT22;16404;49.902;10.074;2023-02-15T07:28:42;5.40;68.30
29431;DHT22;16404;49.902;10.074;2023-02-15T07:31:27;5.40;68.20
29431;DHT22;16404;49.902;10.074;2023-02-15T07:34:12;5.50;68.20
29431;DHT22;16404;49.902;10.074;2023-02-15T07:36:56;5.50;68.20
29431;DHT22;16404;49.902;10.074;2023-02-15T07:39:40;5.50;68.10
29431;DHT22;16404;49.902;10.074;2023-02-15T07:42:25;5.50;68.30
29431;DHT22;16404;49.902;10.074;2023-02-15T07:45:09;5.50;68.20
29431;DHT22;16404;49.902;10.074;2023-02-15T07:47:54;5.50;68.20
29431;DHT22;16404;49.902;10.074;2023-02-15T07:50:39;5.50;68.10
29431;DHT22;16404;49.902;10.074;2023-02-15T07:53:23;5.50;67.90
29431;DHT22;16404;49.902;10.074;2023-02-15T07:56:12;5.50;67.90
29431;DHT22;16404;49.902;10.074;2023-02-15T07:58:57;5.50;68.00
29431;DHT22;16404;49.902;10.074;2023-02-15T08:01:43;5.40;67.80
29431;DHT22;16404;49.902;10.074;2023-02-15T08:04:28;5.40;67.90
29431;DHT22;16404;49.902;10.074;2023-02-15T08:07:12;5.40;68.00
29431;DHT22;16404;49.902;10.074;2023-02-15T08:09:57;5.40;68.00
29431;DHT22;16404;49.902;10.074;2023-02-15T08:12:43;5.40;68.00
29431;DHT22;16404;49.902;10.074;2023-02-15T08:15:27;5.40;67.90
29431;DHT22;16404;49.902;10.074;2023-02-15T08:18:12;5.50;67.70
29431;DHT22;16404;49.902;10.074;2023-02-15T08:20:57;5.50;67.40
29431;DHT22;16404;49.902;10.074;2023-02-15T08:23:41;5.50;67.20
29431;DHT22;16404;49.902;10.074;2023-02-15T08:26:27;5.50;67.20
29431;DHT22;16404;49.902;10.074;2023-02-15T08:29:14;5.50;67.20
29431;DHT22;16404;49.902;10.074;2023-02-15T08:32:01;5.50;67.10
29431;DHT22;16404;49.902;10.074;2023-02-15T08:34:47;5.40;67.10
29431;DHT22;16404;49.902;10.074;2023-02-15T08:37:31;5.50;67.60
29431;DHT22;16404;49.902;10.074;2023-02-15T08:40:16;5.50;67.40
29431;DHT22;16404;49.902;10.074;2023-02-15T08:43:01;5.50;67.20
29431;DHT22;16404;49.902;10.074;2023-02-15T08:45:45;5.50;67.10
29431;DHT22;16404;49.902;10.074;2023-02-15T08:48:30;5.50;67.20
29431;DHT22;16404;49.902;10.074;2023-02-15T08:51:17;5.50;67.20
29431;DHT22;16404;49.902;10.074;2023-02-15T08:54:04;5.50;67.50
29431;DHT22;16404;49.902;10.074;2023-02-15T08:56:49;5.40;67.40
29431;DHT22;16404;49.902;10.074;2023-02-15T08:59:34;5.40;67.50
29431;DHT22;16404;49.902;10.074;2023-02-15T09:02:18;5.40;67.50
29431;DHT22;16404;49.902;10.074;2023-02-15T09:05:03;5.40;67.50
29431;DHT22;16404;49.902;10.074;2023-02-15T09:07:47;5.40;67.60
29431;DHT22;16404;49.902;10.074;2023-02-15T09:10:32;5.40;67.60
29431;DHT22;16404;49.902;10.074;2023-02-15T09:13:16;5.40;67.70
29431;DHT22;16404;49.902;10.074;2023-02-15T09:16:03;5.50;67.90
29431;DHT22;16404;49.902;10.074;2023-02-15T09:18:48;5.50;67.70
29431;DHT22;16404;49.902;10.074;2023-02-15T09:21:33;5.50;67.70
29431;DHT22;16404;49.902;10.074;2023-02-15T09:24:18;5.60;67.60
29431;DHT22;16404;49.902;10.074;2023-02-15T09:27:03;5.70;67.30
29431;DHT22;16404;49.902;10.074;2023-02-15T09:29:47;5.70;66.90
29431;DHT22;16404;49.902;10.074;2023-02-15T09:32:32;5.80;66.80
29431;DHT22;16404;49.902;10.074;2023-02-15T09:35:17;5.80;66.80
29431;DHT22;16404;49.902;10.074;2023-02-15T09:38:01;5.90;66.70
29431;DHT22;16404;49.902;10.074;2023-02-15T09:56:30;5.90;67.00
29431;DHT22;16404;49.902;10.074;2023-02-15T10:24:20;6.00;66.70
29431;DHT22;16404;49.902;10.074;2023-02-15T10:27:15;6.10;66.40
29431;DHT22;16404;49.902;10.074;2023-02-15T10:30:10;6.20;66.40
29431;DHT22;16404;49.902;10.074;2023-02-15T10:33:04;6.10;66.50
29431;DHT22;16404;49.902;10.074;2023-02-15T10:45:37;6.20;66.60
29431;DHT22;16404;49.902;10.074;2023-02-15T11:06:08;6.30;66.40
29431;DHT22;16404;49.902;10.074;2023-02-15T11:09:01;6.40;66.50
29431;DHT22;16404;49.902;10.074;2023-02-15T11:11:52;6.40;66.20
29431;DHT22;16404;49.902;10.074;2023-02-15T11:14:46;6.50;66.10
29431;DHT22;16404;49.902;10.074;2023-02-15T11:17:38;6.50;65.70
29431;DHT22;16404;49.902;10.074;2023-02-15T11:20:35;6.60;65.60
29431;DHT22;16404;49.902;10.074;2023-02-15T11:23:24;6.60;65.70
29431;DHT22;16404;49.902;10.074;2023-02-15T11:29:31;6.80;65.70
29431;DHT22;16404;49.902;10.074;2023-02-15T11:32:29;6.80;65.40
29431;DHT22;16404;49.902;10.074;2023-02-15T11:38:28;6.90;65.00
29431;DHT22;16404;49.902;10.074;2023-02-15T11:41:18;6.90;64.80
29431;DHT22;16404;49.902;10.074;2023-02-15T11:47:02;6.90;64.30
29431;DHT22;16404;49.902;10.074;2023-02-15T11:49:47;6.90;64.50
29431;DHT22;16404;49.902;10.074;2023-02-15T11:52:32;6.90;64.40
29431;DHT22;16404;49.902;10.074;2023-02-15T11:55:22;7.00;64.40
29431;DHT22;16404;49.902;10.074;2023-02-15T11:58:30;7.10;64.10
29431;DHT22;16404;49.902;10.074;2023-02-15T12:01:36;7.20;63.80
29431;DHT22;16404;49.902;10.074;2023-02-15T12:04:38;7.20;63.60
29431;DHT22;16404;49.902;10.074;2023-02-15T12:07:54;7.20;63.60
29431;DHT22;16404;49.902;10.074;2023-02-15T12:14:11;7.20;63.30
29431;DHT22;16404;49.902;10.074;2023-02-15T12:16:56;7.20;63.40
29431;DHT22;16404;49.902;10.074;2023-02-15T12:19:41;7.30;63.30
29431;DHT22;16404;49.902;10.074;2023-02-15T12:22:31;7.30;63.10
29431;DHT22;16404;49.902;10.074;2023-02-15T12:29:00;7.40;63.10
29431;DHT22;16404;49.902;10.074;2023-02-15T12:31:49;7.50;63.10
29431;DHT22;16404;49.902;10.074;2023-02-15T12:34:37;7.50;62.70
29431;DHT22;16404;49.902;10.074;2023-02-15T12:37:29;7.50;62.60
29431;DHT22;16404;49.902;10.074;2023-02-15T12:40:25;7.50;62.90
29431;DHT22;16404;49.902;10.074;2023-02-15T12:43:35;7.50;63.10
29431;DHT22;16404;49.902;10.074;2023-02-15T12:49:19;7.60;63.20
29431;DHT22;16404;49.902;10.074;2023-02-15T12:52:10;7.60;62.70
29431;DHT22;16404;49.902;10.074;2023-02-15T12:58:26;7.70;62.20
29431;DHT22;16404;49.902;10.074;2023-02-15T13:01:19;7.70;62.00
29431;DHT22;16404;49.902;10.074;2023-02-15T13:04:13;7.80;61.80
29431;DHT22;16404;49.902;10.074;2023-02-15T13:07:01;7.70;62.30
29431;DHT22;16404;49.902;10.074;2023-02-15T13:09:47;7.60;63.10
29431;DHT22;16404;49.902;10.074;2023-02-15T13:12:32;7.60;63.30
29431;DHT22;16404;49.902;10.074;2023-02-15T13:15:24;7.70;64.10
29431;DHT22;16404;49.902;10.074;2023-02-15T13:18:28;7.80;63.20
29431;DHT22;16404;49.902;10.074;2023-02-15T13:21:15;7.80;62.90
29431;DHT22;16404;49.902;10.074;2023-02-15T13:24:15;7.90;62.70
29431;DHT22;16404;49.902;10.074;2023-02-15T13:27:02;7.90;62.30
29431;DHT22;16404;49.902;10.074;2023-02-15T13:29:56;8.00;61.90
29431;DHT22;16404;49.902;10.074;2023-02-15T13:32:42;8.00;61.60
29431;DHT22;16404;49.902;10.074;2023-02-15T13:35:35;8.10;61.40
29431;DHT22;16404;49.902;10.074;2023-02-15T13:41:43;8.10;61.10
29431;DHT22;16404;49.902;10.074;2023-02-15T13:47:55;8.10;60.70
29431;DHT22;16404;49.902;10.074;2023-02-15T13:57:16;7.90;61.20
29431;DHT22;16404;49.902;10.074;2023-02-15T14:09:53;7.80;61.50
29431;DHT22;16404;49.902;10.074;2023-02-15T14:19:35;7.90;61.60
29431;DHT22;16404;49.902;10.074;2023-02-15T14:22:44;7.90;61.70
29431;DHT22;16404;49.902;10.074;2023-02-15T14:28:58;7.90;62.00
29431;DHT22;16404;49.902;10.074;2023-02-15T14:31:49;7.90;61.80
29431;DHT22;16404;49.902;10.074;2023-02-15T14:40:54;7.80;62.20
29431;DHT22;16404;49.902;10.074;2023-02-15T14:49:36;7.70;61.50
29431;DHT22;16404;49.902;10.074;2023-02-15T14:52:21;7.70;61.60
29431;DHT22;16404;49.902;10.074;2023-02-15T14:55:06;7.70;61.40
29431;DHT22;16404;49.902;10.074;2023-02-15T14:57:58;7.70;61.40
29431;DHT22;16404;49.902;10.074;2023-02-15T15:00:43;7.60;61.70
29431;DHT22;16404;49.902;10.074;2023-02-15T15:03:27;7.50;61.80
29431;DHT22;16404;49.902;10.074;2023-02-15T15:06:23;7.50;62.00
29431;DHT22;16404;49.902;10.074;2023-02-15T15:09:25;7.60;62.00
29431;DHT22;16404;49.902;10.074;2023-02-15T15:15:09;7.60;62.20
29431;DHT22;16404;49.902;10.074;2023-02-15T15:20:50;7.70;61.90
29431;DHT22;16404;49.902;10.074;2023-02-15T15:23:40;7.70;61.70
29431;DHT22;16404;49.902;10.074;2023-02-15T15:31:27;7.70;61.70
29431;DHT22;16404;49.902;10.074;2023-02-15T15:34:40;7.70;61.80
29431;DHT22;16404;49.902;10.074;2023-02-15T15:47:26;7.70;61.60
29431;DHT22;16404;49.902;10.074;2023-02-15T15:50:17;7.70;61.60
29431;DHT22;16404;49.902;10.074;2023-02-15T15:53:02;7.70;61.80
29431;DHT22;16404;49.902;10.074;2023-02-15T15:55:49;7.60;61.90
29431;DHT22;16404;49.902;10.074;2023-02-15T15:58:34;7.60;62.70
29431;DHT22;16404;49.902;10.074;2023-02-15T16:01:28;7.60;61.90
29431;DHT22;16404;49.902;10.074;2023-02-15T16:04:24;7.60;61.90
29431;DHT22;16404;49.902;10.074;2023-02-15T16:10:07;7.50;61.80
29431;DHT22;16404;49.902;10.074;2023-02-15T16:12:52;7.50;61.80
29431;DHT22;16404;49.902;10.074;2023-02-15T16:15:44;7.50;61.80
29431;DHT22;16404;49.902;10.074;2023-02-15T16:18:29;7.40;61.80
29431;DHT22;16404;49.902;10.074;2023-02-15T16:21:21;7.40;61.90
29431;DHT22;16404;49.902;10.074;2023-02-15T16:27:18;7.20;62.30
29431;DHT22;16404;49.902;10.074;2023-02-15T16:35:58;7.20;62.50
29431;DHT22;16404;49.902;10.074;2023-02-15T16:41:31;7.20;62.60
29431;DHT22;16404;49.902;10.074;2023-02-15T16:44:19;7.20;62.50
29431;DHT22;16404;49.902;10.074;2023-02-15T16:47:04;7.20;62.60
29431;DHT22;16404;49.902;10.074;2023-02-15T16:49:53;7.20;62.60
29431;DHT22;16404;49.902;10.074;2023-02-15T16:52:43;7.20;62.80
29431;DHT22;16404;49.902;10.074;2023-02-15T16:55:39;7.10;62.90
29431;DHT22;16404;49.902;10.074;2023-02-15T16:58:54;7.10;63.00
29431;DHT22;16404;49.902;10.074;2023-02-15T17:01:43;7.10;63.20
29431;DHT22;16404;49.902;10.074;2023-02-15T17:04:31;7.10;63.10
29431;DHT22;16404;49.902;10.074;2023-02-15T17:07:20;7.10;63.10
29431;DHT22;16404;49.902;10.074;2023-02-15T17:10:34;7.10;63.20
29431;DHT22;16404;49.902;10.074;2023-02-15T17:13:20;7.00;63.30
29431;DHT22;16404;49.902;10.074;2023-02-15T17:18:49;7.00;63.10
29431;DHT22;16404;49.902;10.074;2023-02-15T17:21:46;7.00;63.20
29431;DHT22;16404;49.902;10.074;2023-02-15T17:24:41;7.00;63.30
29431;DHT22;16404;49.902;10.074;2023-02-15T17:27:28;7.00;63.30
29431;DHT22;16404;49.902;10.074;2023-02-15T17:30:17;7.00;63.30
29431;DHT22;16404;49.902;10.074;2023-02-15T17:36:18;6.90;63.70
29431;DHT22;16404;49.902;10.074;2023-02-15T17:39:20;6.90;63.60
29431;DHT22;16404;49.902;10.074;2023-02-15T17:42:04;6.90;63.80
29431;DHT22;16404;49.902;10.074;2023-02-15T17:44:49;6.90;63.80
29431;DHT22;16404;49.902;10.074;2023-02-15T17:47:34;6.90;64.00
29431;DHT22;16404;49.902;10.074;2023-02-15T17:50:23;6.80;64.00
29431;DHT22;16404;49.902;10.074;2023-02-15T17:53:08;6.80;64.10
29431;DHT22;16404;49.902;10.074;2023-02-15T17:55:53;6.80;64.10
29431;DHT22;16404;49.902;10.074;2023-02-15T17:58:38;6.90;64.20
29431;DHT22;16404;49.902;10.074;2023-02-15T18:01:23;6.80;64.20
29431;DHT22;16404;49.902;10.074;2023-02-15T18:04:26;6.90;64.20
29431;DHT22;16404;49.902;10.074;2023-02-15T18:07:29;6.90;63.90
29431;DHT22;16404;49.902;10.074;2023-02-15T18:10:32;6.80;64.10
29431;DHT22;16404;49.902;10.074;2023-02-15T18:13:35;6.80;64.10
29431;DHT22;16404;49.902;10.074;2023-02-15T18:16:25;6.90;64.30
29431;DHT22;16404;49.902;10.074;2023-02-15T18:19:19;6.80;64.40
29431;DHT22;16404;49.902;10.074;2023-02-15T18:22:16;6.80;64.60
29431;DHT22;16404;49.902;10.074;2023-02-15T18:25:01;6.80;64.60
29431;DHT22;16404;49.902;10.074;2023-02-15T18:27:46;6.80;64.60
29431;DHT22;16404;49.902;10.074;2023-02-15T18:30:32;6.90;64.60
29431;DHT22;16404;49.902;10.074;2023-02-15T18:33:35;6.90;64.60
29431;DHT22;16404;49.902;10.074;2023-02-15T18:36:26;6.90;64.80
29431;DHT22;16404;49.902;10.074;2023-02-15T18:39:34;6.90;64.70
29431;DHT22;16404;49.902;10.074;2023-02-15T18:42:28;6.80;64.80
29431;DHT22;16404;49.902;10.074;2023-02-15T18:45:20;6.80;64.80
29431;DHT22;16404;49.902;10.074;2023-02-15T18:48:05;6.80;64.80
29431;DHT22;16404;49.902;10.074;2023-02-15T18:50:52;6.80;64.90
29431;DHT22;16404;49.902;10.074;2023-02-15T18:53:37;6.80;64.90
29431;DHT22;16404;49.902;10.074;2023-02-15T18:56:22;6.80;65.00
29431;DHT22;16404;49.902;10.074;2023-02-15T18:59:14;6.80;65.00
29431;DHT22;16404;49.902;10.074;2023-02-15T19:01:59;6.80;65.00
29431;DHT22;16404;49.902;10.074;2023-02-15T19:04:45;6.80;64.90
29431;DHT22;16404;49.902;10.074;2023-02-15T19:07:33;6.80;65.10
29431;DHT22;16404;49.902;10.074;2023-02-15T19:10:20;6.70;65.00
29431;DHT22;16404;49.902;10.074;2023-02-15T19:13:09;6.70;65.20
29431;DHT22;16404;49.902;10.074;2023-02-15T19:15:54;6.70;65.40
29431;DHT22;16404;49.902;10.074;2023-02-15T19:18:38;6.70;65.40
29431;DHT22;16404;49.902;10.074;2023-02-15T19:21:24;6.70;65.30
29431;DHT22;16404;49.902;10.074;2023-02-15T19:24:11;6.80;65.30
29431;DHT22;16404;49.902;10.074;2023-02-15T19:26:56;6.80;65.20
29431;DHT22;16404;49.902;10.074;2023-02-15T19:29:41;6.70;64.90
29431;DHT22;16404;49.902;10.074;2023-02-15T19:32:25;6.70;65.20
29431;DHT22;16404;49.902;10.074;2023-02-15T19:35:14;6.70;65.30
29431;DHT22;16404;49.902;10.074;2023-02-15T19:38:01;6.70;65.20
29431;DHT22;16404;49.902;10.074;2023-02-15T19:40:46;6.70;65.00
29431;DHT22;16404;49.902;10.074;2023-02-15T19:43:31;6.70;65.30
29431;DHT22;16404;49.902;10.074;2023-02-15T19:46:16;6.70;65.50
29431;DHT22;16404;49.902;10.074;2023-02-15T19:49:02;6.70;65.50
29431;DHT22;16404;49.902;10.074;2023-02-15T19:51:47;6.70;65.70
29431;DHT22;16404;49.902;10.074;2023-02-15T19:54:34;6.70;65.70
29431;DHT22;16404;49.902;10.074;2023-02-15T19:57:19;6.60;65.70
29431;DHT22;16404;49.902;10.074;2023-02-15T20:00:23;6.60;65.80
29431;DHT22;16404;49.902;10.074;2023-02-15T20:03:09;6.60;66.00
29431;DHT22;16404;49.902;10.074;2023-02-15T20:05:53;6.70;65.90
29431;DHT22;16404;49.902;10.074;2023-02-15T20:08:38;6.70;65.90
29431;DHT22;16404;49.902;10.074;2023-02-15T20:11:23;6.60;65.90
29431;DHT22;16404;49.902;10.074;2023-02-15T20:14:11;6.70;66.70
29431;DHT22;16404;49.902;10.074;2023-02-15T20:16:56;6.70;65.90
29431;DHT22;16404;49.902;10.074;2023-02-15T20:19:40;6.70;65.70
29431;DHT22;16404;49.902;10.074;2023-02-15T20:22:26;6.60;65.80
29431;DHT22;16404;49.902;10.074;2023-02-15T20:25:19;6.60;65.90
29431;DHT22;16404;49.902;10.074;2023-02-15T20:28:04;6.50;66.00
29431;DHT22;16404;49.902;10.074;2023-02-15T20:30:49;6.60;66.10
29431;DHT22;16404;49.902;10.074;2023-02-15T20:33:34;6.60;66.10
29431;DHT22;16404;49.902;10.074;2023-02-15T20:36:21;6.60;66.10
29431;DHT22;16404;49.902;10.074;2023-02-15T20:39:16;6.60;66.20
29431;DHT22;16404;49.902;10.074;2023-02-15T20:42:03;6.50;66.20
29431;DHT22;16404;49.902;10.074;2023-02-15T20:44:47;6.50;66.20
29431;DHT22;16404;49.902;10.074;2023-02-15T20:47:32;6.50;66.30
29431;DHT22;16404;49.902;10.074;2023-02-15T20:50:25;6.50;66.30
29431;DHT22;16404;49.902;10.074;2023-02-15T20:53:10;6.60;66.30
29431;DHT22;16404;49.902;10.074;2023-02-15T20:55:55;6.50;66.20
29431;DHT22;16404;49.902;10.074;2023-02-15T20:58:39;6.70;66.20
29431;DHT22;16404;49.902;10.074;2023-02-15T21:01:24;6.60;65.70
29431;DHT22;16404;49.902;10.074;2023-02-15T21:04:16;6.60;65.70
29431;DHT22;16404;49.902;10.074;2023-02-15T21:07:00;6.60;65.70
29431;DHT22;16404;49.902;10.074;2023-02-15T21:09:45;6.50;65.80
29431;DHT22;16404;49.902;10.074;2023-02-15T21:12:30;6.50;66.00
29431;DHT22;16404;49.902;10.074;2023-02-15T21:15:31;6.50;66.20
29431;DHT22;16404;49.902;10.074;2023-02-15T21:18:21;6.50;66.30
29431;DHT22;16404;49.902;10.074;2023-02-15T21:21:08;6.50;66.20